sensor_id;sensor_type;location;lat;lon;timestamp;pressure;altitude;pressure_sealevel;temperature;humidity
45872;BME280;32333;55.844;-3.210;2022-08-20T00:01:50;99094.16;;;9.95;100.00
45872;BME280;32333;55.844;-3.210;2022-08-20T00:04:18;99092.84;;;9.59;100.00
45872;BME280;32333;55.844;-3.210;2022-08-20T00:06:45;99088.53;;;8.95;100.00
45872;BME280;32333;55.844;-3.210;2022-08-20T00:09:12;99084.95;;;9.81;100.00
45872;BME280;32333;55.844;-3.210;2022-08-20T00:11:40;99085.38;;;9.88;100.00
45872;BME280;32333;55.844;-3.210;2022-08-20T00:14:36;99080.87;;;8.99;100.00
45872;BME280;32333;55.844;-3.210;2022-08-20T00:17:04;99079.16;;;9.46;100.00
45872;BME280;32333;55.844;-3.210;2022-08-20T00:19:31;99073.00;;;8.85;100.00
45872;BME280;32333;55.844;-3.210;2022-08-20T00:22:00;99069.07;;;10.43;100.00
45872;BME280;32333;55.844;-3.210;2022-08-20T00:24:27;99062.63;;;9.49;100.00
45872;BME280;32333;55.844;-3.210;2022-08-20T00:26:54;99058.56;;;9.59;100.00
45872;BME280;32333;55.844;-3.210;2022-08-20T00:29:23;99058.03;;;10.24;100.00
45872;BME280;32333;55.844;-3.210;2022-08-20T00:31:50;99057.87;;;10.46;100.00
45872;BME280;32333;55.844;-3.210;2022-08-20T00:34:18;99052.64;;;8.73;100.00
45872;BME280;32333;55.844;-3.210;2022-08-20T00:36:46;99052.18;;;9.62;100.00
45872;BME280;32333;55.844;-3.210;2022-08-20T00:39:14;99047.74;;;9.26;100.00
45872;BME280;32333;55.844;-3.210;2022-08-20T00:41:41;99042.95;;;9.66;100.00
45872;BME280;32333;55.844;-3.210;2022-08-20T00:44:36;99043.34;;;8.85;100.00
45872;BME280;32333;55.844;-3.210;2022-08-20T00:47:09;99038.10;;;8.94;100.00
45872;BME280;32333;55.844;-3.210;2022-08-20T00:49:37;99034.46;;;9.34;100.00
45872;BME280;32333;55.844;-3.210;2022-08-20T00:52:07;99034.73;;;9.34;100.00
45872;BME280;32333;55.844;-3.210;2022-08-20T00:54:40;99036.47;;;8.56;100.00
45872;BME280;32333;55.844;-3.210;2022-08-20T00:57:14;99031.83;;;8.64;100.00
45872;BME280;32333;55.844;-3.210;2022-08-20T00:59:48;99024.82;;;9.83;100.00
45872;BME280;32333;55.844;-3.210;2022-08-20T01:02:18;99024.25;;;9.61;100.00
45872;BME280;32333;55.844;-3.210;2022-08-20T01:04:48;99023.22;;;9.03;100.00
45872;BME280;32333;55.844;-3.210;2022-08-20T01:07:16;99019.64;;;9.75;100.00
45872;BME280;32333;55.844;-3.210;2022-08-20T01:09:43;99016.26;;;9.77;100.00
45872;BME280;32333;55.844;-3.210;2022-08-20T01:14:36;99016.44;;;9.87;100.00
45872;BME280;32333;55.844;-3.210;2022-08-20T01:17:06;99008.78;;;9.22;100.00
45872;BME280;32333;55.844;-3.210;2022-08-20T01:19:38;99004.40;;;9.78;100.00
45872;BME280;32333;55.844;-3.210;2022-08-20T01:22:07;99006.28;;;9.17;100.00
45872;BME280;32333;55.844;-3.210;2022-08-20T01:24:37;99008.98;;;9.51;100.00
45872;BME280;32333;55.844;-3.210;2022-08-20T01:27:08;99004.82;;;8.94;100.00
45872;BME280;32333;55.844;-3.210;2022-08-20T01:29:38;99002.03;;;9.45;100.00
45872;BME280;32333;55.844;-3.210;2022-08-20T01:32:07;99000.37;;;9.24;100.00
45872;BME280;32333;55.844;-3.210;2022-08-20T01:34:34;99000.55;;;10.03;100.00
45872;BME280;32333;55.844;-3.210;2022-08-20T01:37:02;98997.76;;;9.15;100.00
45872;BME280;32333;55.844;-3.210;2022-08-20T01:39:31;98997.62;;;8.71;100.00
45872;BME280;32333;55.844;-3.210;2022-08-20T01:44:38;98988.65;;;9.32;100.00
45872;BME280;32333;55.844;-3.210;2022-08-20T01:47:13;98986.89;;;8.45;100.00
45872;BME280;32333;55.844;-3.210;2022-08-20T01:49:43;98985.89;;;9.38;100.00
45872;BME280;32333;55.844;-3.210;2022-08-20T01:52:16;98982.57;;;9.95;100.00
45872;BME280;32333;55.844;-3.210;2022-08-20T01:54:47;98980.53;;;9.74;100.00
45872;BME280;32333;55.844;-3.210;2022-08-20T01:57:16;98974.37;;;10.28;100.00
45872;BME280;32333;55.844;-3.210;2022-08-20T01:59:47;98976.29;;;10.10;100.00
45872;BME280;32333;55.844;-3.210;2022-08-20T02:02:17;98971.22;;;9.90;100.00
45872;BME280;32333;55.844;-3.210;2022-08-20T02:04:44;98968.72;;;9.22;100.00
45872;BME280;32333;55.844;-3.210;2022-08-20T02:07:14;98969.33;;;9.42;100.00
45872;BME280;32333;55.844;-3.210;2022-08-20T02:09:43;98969.20;;;9.85;100.00
45872;BME280;32333;55.844;-3.210;2022-08-20T02:14:40;98959.42;;;9.10;100.00
45872;BME280;32333;55.844;-3.210;2022-08-20T02:17:08;98956.96;;;8.78;100.00
45872;BME280;32333;55.844;-3.210;2022-08-20T02:19:40;98951.22;;;9.55;100.00
45872;BME280;32333;55.844;-3.210;2022-08-20T02:22:15;98948.31;;;8.63;100.00
45872;BME280;32333;55.844;-3.210;2022-08-20T02:24:44;98941.14;;;8.89;100.00
45872;BME280;32333;55.844;-3.210;2022-08-20T02:27:12;98934.75;;;9.20;100.00
45872;BME280;32333;55.844;-3.210;2022-08-20T02:29:40;98936.92;;;9.36;100.00
45872;BME280;32333;55.844;-3.210;2022-08-20T02:32:08;98934.60;;;9.73;100.00
45872;BME280;32333;55.844;-3.210;2022-08-20T02:34:36;98929.64;;;8.73;100.00
45872;BME280;32333;55.844;-3.210;2022-08-20T02:37:05;98923.73;;;9.32;100.00
45872;BME280;32333;55.844;-3.210;2022-08-20T02:39:33;98917.74;;;8.04;100.00
45872;BME280;32333;55.844;-3.210;2022-08-20T02:42:01;98915.13;;;8.74;100.00
45872;BME280;32333;55.844;-3.210;2022-08-20T02:44:36;98910.97;;;9.03;100.00
45872;BME280;32333;55.844;-3.210;2022-08-20T02:47:05;98905.55;;;9.01;100.00
45872;BME280;32333;55.844;-3.210;2022-08-20T02:49:32;98900.19;;;8.96;100.00
45872;BME280;32333;55.844;-3.210;2022-08-20T02:52:00;98890.55;;;8.85;100.00
45872;BME280;32333;55.844;-3.210;2022-08-20T02:54:27;98885.32;;;9.31;100.00
45872;BME280;32333;55.844;-3.210;2022-08-20T02:56:55;98885.05;;;9.58;100.00
45872;BME280;32333;55.844;-3.210;2022-08-20T02:59:23;98881.38;;;9.76;100.00
45872;BME280;32333;55.844;-3.210;2022-08-20T03:01:50;98883.69;;;9.33;100.00
45872;BME280;32333;55.844;-3.210;2022-08-20T03:04:18;98879.01;;;9.63;100.00
45872;BME280;32333;55.844;-3.210;2022-08-20T03:06:45;98875.93;;;8.91;100.00
45872;BME280;32333;55.844;-3.210;2022-08-20T03:09:12;98863.08;;;10.24;100.00
45872;BME280;32333;55.844;-3.210;2022-08-20T03:11:40;98860.46;;;8.26;100.00
45872;BME280;32333;55.844;-3.210;2022-08-20T03:14:36;98852.77;;;9.20;100.00
45872;BME280;32333;55.844;-3.210;2022-08-20T03:17:03;98853.64;;;8.47;100.00
45872;BME280;32333;55.844;-3.210;2022-08-20T03:19:30;98849.52;;;8.04;100.00
45872;BME280;32333;55.844;-3.210;2022-08-20T03:21:59;98848.51;;;8.80;100.00
45872;BME280;32333;55.844;-3.210;2022-08-20T03:24:27;98843.63;;;8.82;100.00
45872;BME280;32333;55.844;-3.210;2022-08-20T03:26:55;98837.18;;;9.57;100.00
45872;BME280;32333;55.844;-3.210;2022-08-20T03:29:24;98833.75;;;8.75;100.00
45872;BME280;32333;55.844;-3.210;2022-08-20T03:31:51;98827.57;;;9.11;100.00
45872;BME280;32333;55.844;-3.210;2022-08-20T03:34:19;98829.08;;;8.67;100.00
45872;BME280;32333;55.844;-3.210;2022-08-20T03:36:48;98824.45;;;8.34;100.00
45872;BME280;32333;55.844;-3.210;2022-08-20T03:39:15;98826.38;;;8.08;100.00
45872;BME280;32333;55.844;-3.210;2022-08-20T03:41:42;98818.64;;;7.77;100.00
45872;BME280;32333;55.844;-3.210;2022-08-20T03:44:35;98817.55;;;8.63;100.00
45872;BME280;32333;55.844;-3.210;2022-08-20T03:47:04;98813.91;;;8.98;100.00
45872;BME280;32333;55.844;-3.210;2022-08-20T03:49:32;98809.86;;;8.88;100.00
45872;BME280;32333;55.844;-3.210;2022-08-20T03:51:59;98810.43;;;9.13;100.00
45872;BME280;32333;55.844;-3.210;2022-08-20T03:54:26;98804.69;;;9.19;100.00
45872;BME280;32333;55.844;-3.210;2022-08-20T03:56:54;98801.72;;;9.74;100.00
45872;BME280;32333;55.844;-3.210;2022-08-20T03:59:22;98798.21;;;9.17;100.00
45872;BME280;32333;55.844;-3.210;2022-08-20T04:01:49;98792.73;;;8.78;100.00
45872;BME280;32333;55.844;-3.210;2022-08-20T04:04:17;98791.10;;;9.36;100.00
45872;BME280;32333;55.844;-3.210;2022-08-20T04:06:46;98784.30;;;9.79;100.00
45872;BME280;32333;55.844;-3.210;2022-08-20T04:09:14;98776.09;;;9.62;100.00
45872;BME280;32333;55.844;-3.210;2022-08-20T04:11:41;98768.62;;;9.29;100.00
45872;BME280;32333;55.844;-3.210;2022-08-20T04:14:35;98765.19;;;9.71;100.00
45872;BME280;32333;55.844;-3.210;2022-08-20T04:17:05;98762.15;;;9.47;100.00
45872;BME280;32333;55.844;-3.210;2022-08-20T04:19:34;98755.62;;;9.66;100.00
45872;BME280;32333;55.844;-3.210;2022-08-20T04:22:02;98760.40;;;8.92;100.00
45872;BME280;32333;55.844;-3.210;2022-08-20T04:24:30;98756.72;;;8.95;100.00
45872;BME280;32333;55.844;-3.210;2022-08-20T04:26:58;98749.96;;;9.34;100.00
45872;BME280;32333;55.844;-3.210;2022-08-20T04:29:26;98744.97;;;9.44;100.00
45872;BME280;32333;55.844;-3.210;2022-08-20T04:31:53;98739.98;;;9.60;100.00
45872;BME280;32333;55.844;-3.210;2022-08-20T04:34:22;98744.37;;;9.28;100.00
45872;BME280;32333;55.844;-3.210;2022-08-20T04:36:49;98743.91;;;9.95;100.00
45872;BME280;32333;55.844;-3.210;2022-08-20T04:39:17;98740.00;;;9.51;100.00
45872;BME280;32333;55.844;-3.210;2022-08-20T04:41:45;98738.90;;;10.07;100.00
45872;BME280;32333;55.844;-3.210;2022-08-20T04:44:35;98739.61;;;10.19;100.00
45872;BME280;32333;55.844;-3.210;2022-08-20T04:47:02;98735.26;;;9.59;100.00
45872;BME280;32333;55.844;-3.210;2022-08-20T04:49:30;98733.25;;;10.24;100.00
45872;BME280;32333;55.844;-3.210;2022-08-20T04:51:58;98726.61;;;9.75;100.00
45872;BME280;32333;55.844;-3.210;2022-08-20T04:54:25;98720.37;;;10.27;100.00
45872;BME280;32333;55.844;-3.210;2022-08-20T04:56:53;98721.16;;;9.96;100.00
45872;BME280;32333;55.844;-3.210;2022-08-20T04:59:20;98728.34;;;9.63;100.00
45872;BME280;32333;55.844;-3.210;2022-08-20T05:01:47;98723.49;;;9.88;100.00
45872;BME280;32333;55.844;-3.210;2022-08-20T05:04:15;98722.67;;;9.93;100.00
45872;BME280;32333;55.844;-3.210;2022-08-20T05:06:42;98726.55;;;9.69;100.00
45872;BME280;32333;55.844;-3.210;2022-08-20T05:09:10;98728.06;;;10.27;100.00
45872;BME280;32333;55.844;-3.210;2022-08-20T05:11:38;98730.53;;;10.13;100.00
45872;BME280;32333;55.844;-3.210;2022-08-20T05:14:35;98725.72;;;10.37;100.00
45872;BME280;32333;55.844;-3.210;2022-08-20T05:17:03;98723.42;;;10.04;100.00
45872;BME280;32333;55.844;-3.210;2022-08-20T05:19:31;98722.33;;;9.96;100.00
45872;BME280;32333;55.844;-3.210;2022-08-20T05:21:59;98723.92;;;10.15;100.00
45872;BME280;32333;55.844;-3.210;2022-08-20T05:24:26;98713.61;;;10.44;100.00
45872;BME280;32333;55.844;-3.210;2022-08-20T05:26:53;98706.30;;;10.03;100.00
45872;BME280;32333;55.844;-3.210;2022-08-20T05:29:22;98700.81;;;10.80;100.00
45872;BME280;32333;55.844;-3.210;2022-08-20T05:31:49;98707.36;;;10.14;100.00
45872;BME280;32333;55.844;-3.210;2022-08-20T05:34:17;98710.91;;;10.52;100.00
45872;BME280;32333;55.844;-3.210;2022-08-20T05:36:48;98706.78;;;10.38;100.00
45872;BME280;32333;55.844;-3.210;2022-08-20T05:39:17;98714.53;;;10.19;100.00
45872;BME280;32333;55.844;-3.210;2022-08-20T05:41:47;98700.98;;;10.79;100.00
45872;BME280;32333;55.844;-3.210;2022-08-20T05:44:35;98695.05;;;11.20;100.00
45872;BME280;32333;55.844;-3.210;2022-08-20T05:47:03;98698.64;;;11.17;100.00
45872;BME280;32333;55.844;-3.210;2022-08-20T05:49:31;98708.76;;;11.50;100.00
45872;BME280;32333;55.844;-3.210;2022-08-20T05:51:59;98701.22;;;10.83;100.00
45872;BME280;32333;55.844;-3.210;2022-08-20T05:54:26;98702.58;;;10.35;100.00
45872;BME280;32333;55.844;-3.210;2022-08-20T05:56:54;98702.64;;;10.17;100.00
45872;BME280;32333;55.844;-3.210;2022-08-20T05:59:23;98698.47;;;10.57;100.00
45872;BME280;32333;55.844;-3.210;2022-08-20T06:01:51;98701.28;;;10.70;100.00
45872;BME280;32333;55.844;-3.210;2022-08-20T06:04:19;98702.40;;;10.59;100.00
45872;BME280;32333;55.844;-3.210;2022-08-20T06:06:46;98689.24;;;10.33;100.00
45872;BME280;32333;55.844;-3.210;2022-08-20T06:09:16;98683.37;;;10.55;100.00
45872;BME280;32333;55.844;-3.210;2022-08-20T06:11:44;98675.79;;;10.95;100.00
45872;BME280;32333;55.844;-3.210;2022-08-20T06:14:35;98676.97;;;10.95;100.00
45872;BME280;32333;55.844;-3.210;2022-08-20T06:17:04;98676.00;;;11.13;100.00
45872;BME280;32333;55.844;-3.210;2022-08-20T06:19:33;98671.75;;;10.85;100.00
45872;BME280;32333;55.844;-3.210;2022-08-20T06:22:02;98675.46;;;10.82;100.00
45872;BME280;32333;55.844;-3.210;2022-08-20T06:24:30;98673.63;;;10.87;100.00
45872;BME280;32333;55.844;-3.210;2022-08-20T06:26:59;98668.72;;;10.01;100.00
45872;BME280;32333;55.844;-3.210;2022-08-20T06:29:27;98656.47;;;10.89;100.00
45872;BME280;32333;55.844;-3.210;2022-08-20T06:31:56;98651.65;;;11.24;100.00
45872;BME280;32333;55.844;-3.210;2022-08-20T06:34:24;98640.03;;;11.58;100.00
45872;BME280;32333;55.844;-3.210;2022-08-20T06:36:51;98642.79;;;10.89;100.00
45872;BME280;32333;55.844;-3.210;2022-08-20T06:39:19;98637.61;;;10.89;100.00
45872;BME280;32333;55.844;-3.210;2022-08-20T06:41:47;98639.27;;;11.22;100.00
45872;BME280;32333;55.844;-3.210;2022-08-20T06:44:35;98642.01;;;11.79;100.00
45872;BME280;32333;55.844;-3.210;2022-08-20T06:47:04;98645.16;;;11.09;100.00
45872;BME280;32333;55.844;-3.210;2022-08-20T06:49:33;98645.64;;;12.06;100.00
45872;BME280;32333;55.844;-3.210;2022-08-20T06:52:01;98646.82;;;11.92;100.00
45872;BME280;32333;55.844;-3.210;2022-08-20T06:54:29;98651.16;;;11.83;100.00
45872;BME280;32333;55.844;-3.210;2022-08-20T06:56:57;98651.22;;;11.24;100.00
45872;BME280;32333;55.844;-3.210;2022-08-20T06:59:24;98644.78;;;12.13;100.00
45872;BME280;32333;55.844;-3.210;2022-08-20T07:01:52;98650.66;;;11.93;100.00
45872;BME280;32333;55.844;-3.210;2022-08-20T07:04:21;98652.49;;;12.09;100.00
45872;BME280;32333;55.844;-3.210;2022-08-20T07:06:49;98658.19;;;11.61;100.00
45872;BME280;32333;55.844;-3.210;2022-08-20T07:09:16;98657.89;;;12.50;100.00
45872;BME280;32333;55.844;-3.210;2022-08-20T07:11:44;98653.40;;;12.08;100.00
45872;BME280;32333;55.844;-3.210;2022-08-20T07:14:35;98656.12;;;12.24;100.00
45872;BME280;32333;55.844;-3.210;2022-08-20T07:17:03;98656.24;;;11.51;100.00
45872;BME280;32333;55.844;-3.210;2022-08-20T07:19:31;98654.19;;;12.53;100.00
45872;BME280;32333;55.844;-3.210;2022-08-20T07:21:59;98647.22;;;12.18;100.00
45872;BME280;32333;55.844;-3.210;2022-08-20T07:24:26;98649.43;;;12.24;100.00
45872;BME280;32333;55.844;-3.210;2022-08-20T07:26:53;98644.77;;;12.74;100.00
45872;BME280;32333;55.844;-3.210;2022-08-20T07:29:22;98650.84;;;11.88;100.00
45872;BME280;32333;55.844;-3.210;2022-08-20T07:31:49;98645.55;;;13.07;100.00
45872;BME280;32333;55.844;-3.210;2022-08-20T07:34:16;98647.97;;;13.17;100.00
45872;BME280;32333;55.844;-3.210;2022-08-20T07:36:43;98637.27;;;12.38;100.00
45872;BME280;32333;55.844;-3.210;2022-08-20T07:39:11;98638.21;;;11.71;100.00
45872;BME280;32333;55.844;-3.210;2022-08-20T07:41:38;98641.84;;;12.07;100.00
45872;BME280;32333;55.844;-3.210;2022-08-20T07:44:35;98639.73;;;12.38;100.00
45872;BME280;32333;55.844;-3.210;2022-08-20T07:47:03;98648.67;;;12.04;100.00
45872;BME280;32333;55.844;-3.210;2022-08-20T07:49:31;98646.84;;;12.16;100.00
45872;BME280;32333;55.844;-3.210;2022-08-20T07:51:59;98652.43;;;11.94;100.00
45872;BME280;32333;55.844;-3.210;2022-08-20T07:54:26;98649.84;;;12.10;100.00
45872;BME280;32333;55.844;-3.210;2022-08-20T07:56:53;98649.21;;;11.88;100.00
45872;BME280;32333;55.844;-3.210;2022-08-20T07:59:22;98653.84;;;11.66;100.00
45872;BME280;32333;55.844;-3.210;2022-08-20T08:01:49;98657.91;;;12.43;100.00
45872;BME280;32333;55.844;-3.210;2022-08-20T08:04:16;98649.27;;;12.31;100.00
45872;BME280;32333;55.844;-3.210;2022-08-20T08:06:43;98646.03;;;13.04;100.00
45872;BME280;32333;55.844;-3.210;2022-08-20T08:09:13;98652.58;;;13.70;100.00
45872;BME280;32333;55.844;-3.210;2022-08-20T08:11:44;98645.27;;;12.79;100.00
45872;BME280;32333;55.844;-3.210;2022-08-20T08:14:35;98644.04;;;12.75;100.00
45872;BME280;32333;55.844;-3.210;2022-08-20T08:17:04;98651.13;;;12.61;100.00
45872;BME280;32333;55.844;-3.210;2022-08-20T08:19:35;98655.37;;;12.83;100.00
45872;BME280;32333;55.844;-3.210;2022-08-20T08:22:05;98661.89;;;12.98;100.00
45872;BME280;32333;55.844;-3.210;2022-08-20T08:24:33;98672.49;;;12.94;100.00
45872;BME280;32333;55.844;-3.210;2022-08-20T08:27:00;98679.13;;;11.96;100.00
45872;BME280;32333;55.844;-3.210;2022-08-20T08:29:27;98676.22;;;12.79;100.00
45872;BME280;32333;55.844;-3.210;2022-08-20T08:31:56;98675.80;;;12.60;100.00
45872;BME280;32333;55.844;-3.210;2022-08-20T08:34:23;98683.67;;;12.31;100.00
45872;BME280;32333;55.844;-3.210;2022-08-20T08:36:51;98683.02;;;12.64;100.00
45872;BME280;32333;55.844;-3.210;2022-08-20T08:39:21;98691.63;;;13.01;100.00
45872;BME280;32333;55.844;-3.210;2022-08-20T08:41:50;98685.02;;;12.18;100.00
45872;BME280;32333;55.844;-3.210;2022-08-20T08:44:39;98683.81;;;12.64;100.00
45872;BME280;32333;55.844;-3.210;2022-08-20T08:47:12;98691.21;;;12.62;100.00
45872;BME280;32333;55.844;-3.210;2022-08-20T08:49:45;98696.67;;;12.74;100.00
45872;BME280;32333;55.844;-3.210;2022-08-20T08:52:17;98698.99;;;13.20;100.00
45872;BME280;32333;55.844;-3.210;2022-08-20T08:54:48;98700.89;;;13.78;100.00
45872;BME280;32333;55.844;-3.210;2022-08-20T08:57:17;98686.78;;;13.21;100.00
45872;BME280;32333;55.844;-3.210;2022-08-20T08:59:55;98683.17;;;13.30;100.00
45872;BME280;32333;55.844;-3.210;2022-08-20T09:02:27;98668.59;;;12.83;100.00
45872;BME280;32333;55.844;-3.210;2022-08-20T09:04:58;98679.94;;;12.73;100.00
45872;BME280;32333;55.844;-3.210;2022-08-20T09:07:30;98685.49;;;13.63;100.00
45872;BME280;32333;55.844;-3.210;2022-08-20T09:10:00;98689.52;;;13.05;100.00
45872;BME280;32333;55.844;-3.210;2022-08-20T09:14:36;98696.53;;;12.69;100.00
45872;BME280;32333;55.844;-3.210;2022-08-20T09:17:04;98692.02;;;12.04;100.00
45872;BME280;32333;55.844;-3.210;2022-08-20T09:19:31;98680.76;;;12.60;100.00
45872;BME280;32333;55.844;-3.210;2022-08-20T09:22:06;98659.39;;;12.91;100.00
45872;BME280;32333;55.844;-3.210;2022-08-20T09:24:34;98669.54;;;12.55;100.00
45872;BME280;32333;55.844;-3.210;2022-08-20T09:27:01;98674.48;;;11.74;100.00
45872;BME280;32333;55.844;-3.210;2022-08-20T09:29:29;98682.91;;;12.17;100.00
45872;BME280;32333;55.844;-3.210;2022-08-20T09:32:04;98672.20;;;12.18;100.00
45872;BME280;32333;55.844;-3.210;2022-08-20T09:34:34;98682.64;;;12.07;100.00
45872;BME280;32333;55.844;-3.210;2022-08-20T09:37:02;98684.04;;;12.83;100.00
45872;BME280;32333;55.844;-3.210;2022-08-20T09:39:29;98689.30;;;13.26;100.00
45872;BME280;32333;55.844;-3.210;2022-08-20T09:44:35;98665.76;;;13.51;100.00
45872;BME280;32333;55.844;-3.210;2022-08-20T09:47:02;98661.10;;;13.52;100.00
45872;BME280;32333;55.844;-3.210;2022-08-20T09:49:30;98653.02;;;13.70;100.00
45872;BME280;32333;55.844;-3.210;2022-08-20T09:51:59;98677.60;;;14.36;100.00
45872;BME280;32333;55.844;-3.210;2022-08-20T09:54:27;98692.23;;;12.77;100.00
45872;BME280;32333;55.844;-3.210;2022-08-20T09:56:56;98688.94;;;13.17;100.00
45872;BME280;32333;55.844;-3.210;2022-08-20T09:59:25;98686.20;;;13.16;100.00
45872;BME280;32333;55.844;-3.210;2022-08-20T10:01:52;98689.22;;;12.79;100.00
45872;BME280;32333;55.844;-3.210;2022-08-20T10:04:21;98694.62;;;13.06;100.00
45872;BME280;32333;55.844;-3.210;2022-08-20T10:06:48;98687.25;;;12.93;100.00
45872;BME280;32333;55.844;-3.210;2022-08-20T10:09:16;98694.85;;;12.28;100.00
45872;BME280;32333;55.844;-3.210;2022-08-20T10:11:44;98682.65;;;13.02;100.00
45872;BME280;32333;55.844;-3.210;2022-08-20T10:14:36;98675.18;;;11.81;100.00
45872;BME280;32333;55.844;-3.210;2022-08-20T10:17:03;98684.42;;;12.41;100.00
45872;BME280;32333;55.844;-3.210;2022-08-20T10:19:31;98679.47;;;12.51;100.00
45872;BME280;32333;55.844;-3.210;2022-08-20T10:21:59;98679.60;;;12.31;100.00
45872;BME280;32333;55.844;-3.210;2022-08-20T10:24:27;98678.01;;;12.57;100.00
45872;BME280;32333;55.844;-3.210;2022-08-20T10:26:56;98678.00;;;12.37;100.00
45872;BME280;32333;55.844;-3.210;2022-08-20T10:29:24;98674.43;;;12.93;100.00
45872;BME280;32333;55.844;-3.210;2022-08-20T10:31:52;98676.85;;;12.22;100.00
45872;BME280;32333;55.844;-3.210;2022-08-20T10:34:22;98670.66;;;12.71;100.00
45872;BME280;32333;55.844;-3.210;2022-08-20T10:36:51;98661.80;;;12.75;100.00
45872;BME280;32333;55.844;-3.210;2022-08-20T10:39:19;98655.71;;;13.75;100.00
45872;BME280;32333;55.844;-3.210;2022-08-20T10:41:47;98655.43;;;15.06;100.00
45872;BME280;32333;55.844;-3.210;2022-08-20T10:44:35;98653.62;;;15.34;100.00
45872;BME280;32333;55.844;-3.210;2022-08-20T10:47:21;98658.07;;;14.93;100.00
45872;BME280;32333;55.844;-3.210;2022-08-20T10:49:50;98658.72;;;15.19;100.00
45872;BME280;32333;55.844;-3.210;2022-08-20T10:52:18;98666.24;;;14.92;100.00
45872;BME280;32333;55.844;-3.210;2022-08-20T10:54:47;98674.32;;;14.69;100.00
45872;BME280;32333;55.844;-3.210;2022-08-20T10:57:18;98670.99;;;15.46;100.00
45872;BME280;32333;55.844;-3.210;2022-08-20T10:59:48;98675.32;;;15.45;100.00
45872;BME280;32333;55.844;-3.210;2022-08-20T11:02:16;98677.59;;;15.21;100.00
45872;BME280;32333;55.844;-3.210;2022-08-20T11:04:44;98681.36;;;15.66;100.00
45872;BME280;32333;55.844;-3.210;2022-08-20T11:07:15;98687.10;;;15.30;100.00
45872;BME280;32333;55.844;-3.210;2022-08-20T11:09:44;98683.69;;;15.19;100.00
45872;BME280;32333;55.844;-3.210;2022-08-20T11:14:36;98690.44;;;16.34;100.00
45872;BME280;32333;55.844;-3.210;2022-08-20T11:17:03;98683.21;;;16.63;100.00
45872;BME280;32333;55.844;-3.210;2022-08-20T11:19:31;98690.24;;;15.23;100.00
45872;BME280;32333;55.844;-3.210;2022-08-20T11:21:59;98687.11;;;16.11;100.00
45872;BME280;32333;55.844;-3.210;2022-08-20T11:24:26;98690.98;;;16.57;100.00
45872;BME280;32333;55.844;-3.210;2022-08-20T11:26:53;98698.24;;;16.33;100.00
45872;BME280;32333;55.844;-3.210;2022-08-20T11:29:22;98701.60;;;16.15;100.00
45872;BME280;32333;55.844;-3.210;2022-08-20T11:31:49;98707.85;;;15.39;100.00
45872;BME280;32333;55.844;-3.210;2022-08-20T11:34:17;98716.78;;;15.27;100.00
45872;BME280;32333;55.844;-3.210;2022-08-20T11:36:46;98719.46;;;14.64;100.00
45872;BME280;32333;55.844;-3.210;2022-08-20T11:39:14;98717.14;;;14.30;100.00
45872;BME280;32333;55.844;-3.210;2022-08-20T11:41:43;98712.99;;;14.92;100.00
45872;BME280;32333;55.844;-3.210;2022-08-20T11:44:35;98706.11;;;15.61;100.00
45872;BME280;32333;55.844;-3.210;2022-08-20T11:47:04;98701.83;;;15.90;100.00
45872;BME280;32333;55.844;-3.210;2022-08-20T11:49:32;98707.41;;;15.97;100.00
45872;BME280;32333;55.844;-3.210;2022-08-20T11:52:00;98708.99;;;16.36;100.00
45872;BME280;32333;55.844;-3.210;2022-08-20T11:54:28;98706.86;;;16.23;100.00
45872;BME280;32333;55.844;-3.210;2022-08-20T11:56:56;98697.79;;;16.72;100.00
45872;BME280;32333;55.844;-3.210;2022-08-20T11:59:24;98706.50;;;15.93;100.00
45872;BME280;32333;55.844;-3.210;2022-08-20T12:01:52;98702.64;;;15.68;100.00
45872;BME280;32333;55.844;-3.210;2022-08-20T12:04:21;98714.86;;;15.67;100.00
45872;BME280;32333;55.844;-3.210;2022-08-20T12:06:48;98719.81;;;16.52;100.00
45872;BME280;32333;55.844;-3.210;2022-08-20T12:09:16;98719.54;;;16.18;100.00
45872;BME280;32333;55.844;-3.210;2022-08-20T12:11:44;98715.62;;;15.91;100.00
45872;BME280;32333;55.844;-3.210;2022-08-20T12:14:36;98712.72;;;14.88;100.00
45872;BME280;32333;55.844;-3.210;2022-08-20T12:17:07;98704.59;;;15.59;100.00
45872;BME280;32333;55.844;-3.210;2022-08-20T12:19:38;98723.09;;;15.65;100.00
45872;BME280;32333;55.844;-3.210;2022-08-20T12:22:08;98718.26;;;15.22;100.00
45872;BME280;32333;55.844;-3.210;2022-08-20T12:24:36;98715.70;;;15.43;100.00
45872;BME280;32333;55.844;-3.210;2022-08-20T12:27:12;98722.38;;;15.12;100.00
45872;BME280;32333;55.844;-3.210;2022-08-20T12:29:42;98721.72;;;15.44;100.00
45872;BME280;32333;55.844;-3.210;2022-08-20T12:32:10;98727.63;;;15.40;100.00
45872;BME280;32333;55.844;-3.210;2022-08-20T12:34:41;98724.17;;;15.79;100.00
45872;BME280;32333;55.844;-3.210;2022-08-20T12:37:11;98732.99;;;15.51;100.00
45872;BME280;32333;55.844;-3.210;2022-08-20T12:39:41;98734.55;;;15.52;100.00
45872;BME280;32333;55.844;-3.210;2022-08-20T12:44:35;98740.53;;;14.96;100.00
45872;BME280;32333;55.844;-3.210;2022-08-20T12:47:08;98741.44;;;15.12;100.00
45872;BME280;32333;55.844;-3.210;2022-08-20T12:49:37;98745.34;;;14.74;100.00
45872;BME280;32333;55.844;-3.210;2022-08-20T12:52:05;98748.27;;;15.24;100.00
45872;BME280;32333;55.844;-3.210;2022-08-20T12:54:32;98741.62;;;15.21;100.00
45872;BME280;32333;55.844;-3.210;2022-08-20T12:57:00;98747.62;;;15.16;100.00
45872;BME280;32333;55.844;-3.210;2022-08-20T12:59:28;98732.01;;;15.63;100.00
45872;BME280;32333;55.844;-3.210;2022-08-20T13:01:55;98741.57;;;15.24;100.00
45872;BME280;32333;55.844;-3.210;2022-08-20T13:04:23;98736.64;;;15.69;100.00
45872;BME280;32333;55.844;-3.210;2022-08-20T13:06:50;98724.89;;;15.36;100.00
45872;BME280;32333;55.844;-3.210;2022-08-20T13:09:18;98737.51;;;15.50;100.00
45872;BME280;32333;55.844;-3.210;2022-08-20T13:11:45;98736.18;;;15.88;100.00
45872;BME280;32333;55.844;-3.210;2022-08-20T13:14:36;98739.42;;;16.02;100.00